Time;durP1;ratioP1;P1;durP2;ratioP2;P2;SDS_P1;SDS_P2;PMS_P1;PMS_P2;Temp;Humidity;BMP_temperature;BMP_pressure;BME280_temperature;BME280_humidity;BME280_pressure;Samples;Min_cycle;Max_cycle;Signal;HPM_P1;HPM_P2
2023/05/08 00:01:28;;;;;;;7.47;2.58;;;;;;;14.01;66.14;100511.31;4995585;28;20129;-47
2023/05/08 00:03:55;;;;;;;10.27;3.78;;;;;;;13.98;66.46;100508.72;4990775;28;20073;-50
2023/05/08 00:06:23;;;;;;;7.82;2.70;;;;;;;13.95;66.58;100511.38;4987672;28;20100;-53
2023/05/08 00:08:49;;;;;;;8.10;2.95;;;;;;;13.91;65.77;100504.47;4994562;28;20054;-49
2023/05/08 00:11:16;;;;;;;9.57;2.95;;;;;;;13.88;66.48;100508.81;4993030;28;20053;-49
2023/05/08 00:13:43;;;;;;;6.88;2.78;;;;;;;13.85;66.10;100506.25;4994985;28;20494;-50
2023/05/08 00:16:11;;;;;;;9.45;3.28;;;;;;;13.81;66.44;100499.34;4990214;28;20042;-51
2023/05/08 00:18:38;;;;;;;8.25;3.40;;;;;;;13.78;66.46;100504.56;4986536;28;20074;-51
2023/05/08 00:21:06;;;;;;;7.20;2.92;;;;;;;13.75;66.68;100499.41;4986182;28;20481;-51
2023/05/08 00:23:34;;;;;;;8.98;3.65;;;;;;;13.73;66.99;100511.56;4993857;28;20059;-51
2023/05/08 00:26:02;;;;;;;12.10;4.05;;;;;;;13.69;66.51;100509.84;4992338;28;20061;-51
2023/05/08 00:28:30;;;;;;;9.73;3.55;;;;;;;13.67;65.94;100506.38;4986433;28;20089;-50
2023/05/08 00:31:01;;;;;;;7.35;3.28;;;;;;;13.66;66.52;100515.09;4992647;28;20058;-51
2023/05/08 00:33:29;;;;;;;6.55;2.65;;;;;;;13.60;66.44;100514.25;4986855;28;20043;-53
2023/05/08 00:35:59;;;;;;;6.63;3.90;;;;;;;13.59;66.01;100509.94;4984201;28;20097;-50
2023/05/08 00:38:34;;;;;;;5.90;3.03;;;;;;;13.53;66.67;100506.50;4986982;28;20366;-51
2023/05/08 00:41:02;;;;;;;7.38;2.70;;;;;;;13.52;66.86;100508.25;4978225;28;20134;-49
2023/05/08 00:43:30;;;;;;;7.03;3.10;;;;;;;13.49;67.13;100508.28;4993909;28;20054;-51
2023/05/08 00:46:00;;;;;;;7.45;3.35;;;;;;;13.47;67.02;100510.84;4989280;28;20050;-52
2023/05/08 00:48:31;;;;;;;8.52;3.95;;;;;;;13.45;66.36;100509.16;4994661;28;20117;-51
2023/05/08 00:51:03;;;;;;;7.93;2.50;;;;;;;13.42;66.88;100497.03;4985125;28;20081;-54
2023/05/08 00:53:36;;;;;;;9.82;2.80;;;;;;;13.40;67.06;100503.13;4990007;28;20051;-50
2023/05/08 00:56:05;;;;;;;7.22;2.33;;;;;;;13.37;67.09;100504.84;4997881;28;20050;-50
2023/05/08 00:58:34;;;;;;;6.47;2.47;;;;;;;13.34;66.79;100499.66;5001659;28;20494;-49
2023/05/08 01:01:00;;;;;;;6.82;3.05;;;;;;;13.31;67.32;100510.09;4993054;28;20493;-52
2023/05/08 01:03:27;;;;;;;7.03;2.28;;;;;;;13.29;66.44;100506.66;4995552;28;20072;-50
2023/05/08 01:05:54;;;;;;;8.20;3.00;;;;;;;13.27;66.99;100503.19;4996968;28;20709;-51
2023/05/08 01:08:22;;;;;;;7.85;2.85;;;;;;;13.24;66.84;100503.19;4988760;28;20050;-52
2023/05/08 01:11:03;;;;;;;6.03;2.53;;;;;;;13.19;67.06;100504.97;4994824;28;20149;-53
2023/05/08 01:13:42;;;;;;;5.03;2.08;;;;;;;13.16;66.19;100504.97;4994160;28;20057;-54
2023/05/08 01:16:15;;;;;;;7.65;2.92;;;;;;;13.14;67.07;100505.00;4993624;28;20489;-53
2023/05/08 01:18:47;;;;;;;7.30;2.58;;;;;;;13.13;66.61;100494.63;4993764;28;20081;-49
2023/05/08 01:24:24;;;;;;;7.63;2.80;;;;;;;12.99;67.19;100498.16;5046560;27;20405;-51
2023/05/08 01:29:58;;;;;;;7.90;2.70;;;;;;;12.93;66.53;100490.38;5052439;28;20414;-49
2023/05/08 01:32:30;;;;;;;7.60;2.33;;;;;;;12.94;67.17;100490.38;5021401;28;20084;-51
2023/05/08 01:35:11;;;;;;;7.82;2.85;;;;;;;12.91;66.53;100489.53;5023334;28;20048;-54
2023/05/08 01:37:50;;;;;;;7.97;2.42;;;;;;;12.85;67.09;100493.91;5018397;28;20486;-52
2023/05/08 01:40:55;;;;;;;6.18;2.42;;;;;;;12.78;67.26;100492.22;5022111;28;20690;-51
2023/05/08 01:43:32;;;;;;;4.72;2.05;;;;;;;12.79;67.66;100496.53;5011932;28;20161;-48
2023/05/08 01:46:05;;;;;;;5.03;1.88;;;;;;;12.79;67.39;100487.84;5008925;28;20496;-50
2023/05/08 01:48:34;;;;;;;4.85;2.05;;;;;;;12.78;67.56;100492.22;5016953;28;20042;-51
2023/05/08 01:51:06;;;;;;;8.77;3.50;;;;;;;12.76;67.31;100487.88;5018243;28;20585;-49
2023/05/08 01:53:40;;;;;;;5.60;2.70;;;;;;;12.72;67.04;100489.63;5022816;28;20132;-51
2023/05/08 01:56:12;;;;;;;5.00;2.13;;;;;;;12.70;66.72;100492.22;5017287;28;20057;-48
2023/05/08 01:58:41;;;;;;;5.75;2.30;;;;;;;12.68;66.64;100493.09;5015872;28;20061;-50
2023/05/08 02:01:11;;;;;;;5.88;2.05;;;;;;;12.65;67.13;100488.78;5016346;28;20061;-55
2023/05/08 02:03:40;;;;;;;;;;;;;;;12.45;67.77;100491.47;5021417;28;20085;-51
2023/05/08 02:06:09;;;;;;;4.82;2.30;;;;;;;12.56;66.76;100494.88;5015823;28;19925;-50
2023/05/08 02:08:36;;;;;;;6.70;1.77;;;;;;;12.55;67.60;100487.97;5021125;28;20050;-52
2023/05/08 02:11:05;;;;;;;4.20;1.83;;;;;;;12.53;67.30;100483.66;5020373;28;20108;-52
2023/05/08 02:13:35;;;;;;;4.72;1.38;;;;;;;12.52;67.45;100481.91;5020836;28;20046;-51
2023/05/08 02:16:02;;;;;;;5.15;1.80;;;;;;;12.48;66.91;100478.47;5014718;28;20049;-51
2023/05/08 02:18:31;;;;;;;3.63;2.10;;;;;;;12.45;67.51;100475.88;5016763;28;20045;-54
2023/05/08 02:20:59;;;;;;;5.07;1.85;;;;;;;12.45;67.31;100481.06;5025978;28;20073;-53
2023/05/08 02:23:27;;;;;;;5.88;3.03;;;;;;;12.44;66.79;100476.75;5039943;28;20437;-51
2023/05/08 02:25:55;;;;;;;4.40;2.63;;;;;;;12.41;66.79;100474.16;5037518;28;20520;-51
2023/05/08 02:28:23;;;;;;;3.13;1.88;;;;;;;12.40;66.62;100477.63;5035205;28;20102;-52
2023/05/08 02:30:51;;;;;;;4.40;2.30;;;;;;;12.37;67.74;100477.63;5040889;28;20459;-53
2023/05/08 02:33:19;;;;;;;4.85;1.65;;;;;;;12.36;66.59;100481.13;5037543;28;20095;-50
2023/05/08 02:35:49;;;;;;;5.07;2.08;;;;;;;12.34;66.84;100473.31;5038528;28;20041;-49
2023/05/08 02:38:18;;;;;;;;;;;;;;;12.12;67.95;100462.13;5037954;28;20053;-50
2023/05/08 02:40:50;;;;;;;4.15;2.83;;;;;;;12.23;67.41;100462.97;5022237;28;20288;-50
2023/05/08 02:43:16;;;;;;;4.45;1.70;;;;;;;12.21;67.38;100462.97;5023388;28;20091;-52
2023/05/08 02:45:51;;;;;;;3.95;1.92;;;;;;;12.20;66.26;100458.63;5026562;28;20072;-51
2023/05/08 02:48:25;;;;;;;5.45;2.00;;;;;;;12.18;66.40;100462.09;5026061;28;20051;-52
2023/05/08 02:53:34;;;;;;;7.53;3.00;;;;;;;12.13;67.31;100459.50;5047395;27;20388;-51
2023/05/08 02:58:56;;;;;;;6.57;2.70;;;;;;;12.62;66.05;100447.22;5104679;27;20755;-52
2023/05/08 03:01:28;;;;;;;5.60;2.05;;;;;;;12.27;67.56;100454.31;5043817;28;20045;-53
2023/05/08 03:04:06;;;;;;;6.70;1.92;;;;;;;12.16;66.36;100443.09;5044465;28;20068;-48
2023/05/08 03:06:39;;;;;;;4.50;2.25;;;;;;;12.12;67.88;100446.56;5035035;28;20108;-52
2023/05/08 03:09:11;;;;;;;4.88;2.38;;;;;;;12.08;67.76;100451.75;5052911;28;20080;-53
2023/05/08 03:11:42;;;;;;;4.32;2.03;;;;;;;12.04;67.03;100444.81;5038609;28;20045;-52
2023/05/08 03:14:12;;;;;;;4.50;1.67;;;;;;;12.00;67.77;100448.28;5042788;28;20569;-53
2023/05/08 03:16:41;;;;;;;5.13;2.05;;;;;;;11.97;67.71;100443.09;5041224;28;20080;-50
2023/05/08 03:19:18;;;;;;;7.43;2.55;;;;;;;11.92;67.09;100450.03;5044033;28;20702;-53
2023/05/08 03:21:50;;;;;;;4.90;2.03;;;;;;;11.91;67.46;100438.78;5032798;28;20116;-49
2023/05/08 03:24:18;;;;;;;6.15;1.80;;;;;;;11.87;67.94;100442.25;5033892;28;20095;-51
2023/05/08 03:26:45;;;;;;;5.28;3.10;;;;;;;11.83;66.70;100441.38;5039150;28;20034;-52
2023/05/08 03:29:13;;;;;;;4.85;2.05;;;;;;;11.78;66.87;100437.94;5030873;28;20515;-52
2023/05/08 03:31:41;;;;;;;4.47;2.53;;;;;;;11.76;67.94;100434.44;5039811;28;20136;-50
2023/05/08 03:34:11;;;;;;;9.48;2.30;;;;;;;11.74;67.18;100425.81;5034451;28;20041;-51
2023/05/08 03:36:38;;;;;;;3.67;1.30;;;;;;;11.69;68.21;100425.81;5035945;28;20049;-49
2023/05/08 03:39:05;;;;;;;3.78;2.00;;;;;;;11.66;67.10;100433.59;5037312;28;20513;-49
2023/05/08 03:41:31;;;;;;;4.93;1.65;;;;;;;11.65;67.61;100425.84;5038490;28;20045;-52
2023/05/08 03:44:01;;;;;;;5.07;1.40;;;;;;;11.65;68.18;100428.44;5038102;28;20041;-51
2023/05/08 03:46:30;;;;;;;4.82;1.67;;;;;;;11.63;67.52;100428.44;5043403;28;20616;-53
2023/05/08 03:48:59;;;;;;;3.83;1.45;;;;;;;11.62;67.92;100425.84;5033865;28;20045;-50
2023/05/08 03:51:27;;;;;;;3.88;1.55;;;;;;;11.61;67.38;100418.91;5038595;28;20041;-51
2023/05/08 03:53:53;;;;;;;4.07;1.45;;;;;;;11.61;67.82;100414.59;5034502;28;20045;-54
2023/05/08 03:56:20;;;;;;;3.33;1.55;;;;;;;11.62;67.06;100405.09;5037696;28;20049;-52
2023/05/08 03:59:13;;;;;;;2.83;1.08;;;;;;;11.57;67.49;100407.69;5034873;28;20059;-50
2023/05/08 04:04:36;;;;;;;2.85;1.15;;;;;;;11.60;67.79;100401.63;5057015;28;20382;-50
2023/05/08 04:07:18;;;;;;;8.90;1.70;;;;;;;11.60;67.87;100396.44;5016190;28;20057;-49
2023/05/08 04:15:24;;;;;;;5.35;3.78;;;;;;;11.67;67.59;100404.22;5048919;27;20402;-49
2023/05/08 04:18:05;;;;;;;6.75;4.25;;;;;;;11.65;67.80;100402.50;5021047;28;20071;-50
2023/05/08 04:20:33;;;;;;;5.88;3.20;;;;;;;11.66;67.84;100402.47;5010773;28;20046;-51
2023/05/08 04:23:01;;;;;;;8.95;3.65;;;;;;;11.66;67.75;100402.47;5017259;28;20057;-51
2023/05/08 04:25:29;;;;;;;4.13;3.40;;;;;;;11.67;67.38;100398.16;5019116;28;20049;-51
2023/05/08 04:27:57;;;;;;;5.03;3.47;;;;;;;11.69;67.54;100399.03;5014350;28;20076;-55
2023/05/08 04:30:25;;;;;;;7.78;3.40;;;;;;;11.70;67.97;100395.56;5015912;28;20052;-51
2023/05/08 04:32:52;;;;;;;4.60;3.30;;;;;;;11.71;68.20;100397.28;5011280;28;20046;-51
2023/05/08 04:35:19;;;;;;;4.88;3.40;;;;;;;11.72;67.29;100401.59;5014017;28;20054;-52
2023/05/08 04:37:46;;;;;;;4.90;3.58;;;;;;;11.75;68.21;100400.75;5015020;28;20053;-53
2023/05/08 04:40:13;;;;;;;3.53;2.95;;;;;;;11.76;67.95;100403.31;5039630;28;20049;-53
2023/05/08 04:42:42;;;;;;;4.95;2.95;;;;;;;11.76;67.33;100398.13;5023556;28;20084;-52
2023/05/08 04:45:09;;;;;;;5.15;2.80;;;;;;;11.80;67.36;100401.59;5018597;28;20076;-52
2023/05/08 04:47:36;;;;;;;4.10;2.30;;;;;;;11.80;67.90;100405.06;5014563;28;20053;-55
2023/05/08 04:50:03;;;;;;;5.05;2.53;;;;;;;11.82;67.68;100397.25;5020419;28;20054;-54
2023/05/08 04:52:30;;;;;;;5.30;2.88;;;;;;;11.82;67.56;100403.31;5018095;28;20058;-51
2023/05/08 04:54:57;;;;;;;9.38;3.60;;;;;;;11.85;68.37;100401.59;5019807;28;20141;-51
2023/05/08 04:57:24;;;;;;;3.85;3.17;;;;;;;11.87;67.77;100411.09;5017851;28;20069;-52
2023/05/08 04:59:51;;;;;;;3.65;3.20;;;;;;;11.89;67.54;100411.09;5017264;28;20042;-51
2023/05/08 05:02:17;;;;;;;3.30;2.47;;;;;;;11.91;68.50;100406.75;5021528;28;20077;-52
2023/05/08 05:04:44;;;;;;;4.20;3.75;;;;;;;11.93;68.41;100407.63;5021969;28;20047;-52
2023/05/08 05:07:11;;;;;;;5.00;3.00;;;;;;;11.94;68.08;100394.66;5022479;28;20057;-50
2023/05/08 05:09:38;;;;;;;6.90;3.33;;;;;;;11.98;68.54;100403.28;5022251;28;20046;-52
2023/05/08 05:12:05;;;;;;;4.68;2.92;;;;;;;12.01;68.45;100403.28;5021989;28;20049;-54
2023/05/08 05:14:33;;;;;;;6.05;3.53;;;;;;;12.03;67.46;100400.69;5022284;28;20045;-53
2023/05/08 05:17:00;;;;;;;3.63;1.95;;;;;;;12.05;67.78;100399.78;5022058;28;20426;-52
2023/05/08 05:19:27;;;;;;;3.55;2.92;;;;;;;12.07;67.69;100403.31;5023123;28;20226;-52
2023/05/08 05:21:54;;;;;;;3.50;2.88;;;;;;;12.11;67.85;100403.25;5036204;28;20037;-48
2023/05/08 05:24:20;;;;;;;8.60;3.88;;;;;;;12.13;69.11;100391.16;5030369;28;20497;-52
2023/05/08 05:26:47;;;;;;;6.50;3.08;;;;;;;12.15;68.40;100400.66;5007275;28;20050;-54
2023/05/08 05:29:14;;;;;;;6.32;3.88;;;;;;;12.16;68.25;100401.53;5008486;28;20054;-51
2023/05/08 05:31:41;;;;;;;4.28;3.58;;;;;;;12.17;68.17;100396.34;5006653;28;20135;-49
2023/05/08 05:34:07;;;;;;;7.47;3.80;;;;;;;12.21;68.51;100402.38;5003722;28;20054;-53
2023/05/08 05:36:34;;;;;;;4.93;3.10;;;;;;;12.25;68.96;100401.50;5006997;28;20050;-52
2023/05/08 05:39:01;;;;;;;6.57;4.15;;;;;;;12.28;69.70;100396.28;5007644;28;20049;-51
2023/05/08 05:41:28;;;;;;;8.85;3.33;;;;;;;12.32;69.58;100400.59;5002570;28;20516;-55
2023/05/08 05:43:56;;;;;;;5.88;3.65;;;;;;;12.35;68.61;100404.91;5005497;28;20493;-53
2023/05/08 05:46:26;;;;;;;8.00;4.55;;;;;;;12.37;70.09;100400.59;5003731;28;20066;-51
2023/05/08 05:48:53;;;;;;;7.07;3.20;;;;;;;12.42;69.88;100403.13;5005109;28;20046;-52
2023/05/08 05:51:20;;;;;;;7.90;3.55;;;;;;;12.45;70.55;100408.31;5000420;28;20053;-50
2023/05/08 05:53:47;;;;;;;7.03;3.33;;;;;;;12.51;70.57;100407.44;5001611;28;20100;-51
2023/05/08 05:56:14;;;;;;;11.77;4.57;;;;;;;12.57;70.73;100417.81;5005463;28;20050;-52
2023/05/08 05:58:44;;;;;;;10.43;5.22;;;;;;;12.63;70.77;100411.72;5005589;28;20046;-49
2023/05/08 06:01:11;;;;;;;11.10;4.85;;;;;;;12.70;69.93;100410.81;5003757;28;20134;-55
2023/05/08 06:03:37;;;;;;;7.75;4.72;;;;;;;12.76;71.32;100407.31;5003250;28;20065;-53
2023/05/08 06:06:05;;;;;;;10.48;5.30;;;;;;;12.82;71.51;100413.34;5002808;28;20041;-55
2023/05/08 06:08:32;;;;;;;10.40;4.15;;;;;;;12.89;70.36;100408.94;5000631;28;20045;-53
2023/05/08 06:10:59;;;;;;;6.82;3.95;;;;;;;12.92;70.45;100413.25;5005692;28;20050;-55
2023/05/08 06:13:26;;;;;;;7.38;3.60;;;;;;;12.94;70.70;100411.53;5002847;28;20057;-52
2023/05/08 06:15:55;;;;;;;6.25;3.78;;;;;;;12.94;70.95;100411.53;5002334;28;20048;-55
2023/05/08 06:18:22;;;;;;;6.47;3.38;;;;;;;12.97;71.52;100411.50;5002441;28;20183;-51
2023/05/08 06:20:55;;;;;;;10.05;4.32;;;;;;;13.01;70.47;100412.34;5010532;28;20042;-53
2023/05/08 06:23:22;;;;;;;6.60;4.05;;;;;;;13.04;70.46;100410.56;5025543;28;20057;-51
2023/05/08 06:25:49;;;;;;;5.53;3.35;;;;;;;13.04;71.29;100413.16;5004165;28;20112;-53
2023/05/08 06:28:16;;;;;;;6.13;3.17;;;;;;;13.04;71.39;100413.16;4997975;28;20123;-53
2023/05/08 06:30:42;;;;;;;5.90;3.20;;;;;;;13.11;70.17;100409.66;5006960;28;20100;-53
2023/05/08 06:33:10;;;;;;;6.20;3.50;;;;;;;13.10;71.28;100407.94;5006914;28;20051;-54
2023/05/08 06:35:36;;;;;;;8.43;3.38;;;;;;;13.14;71.62;100405.31;5023962;28;20053;-51
2023/05/08 06:38:03;;;;;;;8.18;3.70;;;;;;;13.15;71.38;100407.03;5008256;28;20099;-53
2023/05/08 06:40:30;;;;;;;10.48;3.55;;;;;;;13.17;71.21;100413.09;5002312;28;20046;-52
2023/05/08 06:42:56;;;;;;;12.68;4.35;;;;;;;13.21;70.36;100407.00;5003917;28;20079;-52
2023/05/08 06:45:23;;;;;;;6.40;3.83;;;;;;;13.24;70.15;100404.34;5004513;28;20042;-55
2023/05/08 06:47:50;;;;;;;8.65;3.78;;;;;;;13.25;71.02;100406.09;5002576;28;20077;-51
2023/05/08 06:50:16;;;;;;;8.98;4.35;;;;;;;13.28;71.29;100403.47;5003289;28;20083;-50
2023/05/08 06:52:43;;;;;;;8.95;3.53;;;;;;;13.30;71.34;100398.25;5004862;28;20046;-54
2023/05/08 06:55:10;;;;;;;5.72;1.98;;;;;;;13.32;70.76;100402.56;5002487;28;20431;-50
2023/05/08 06:57:37;;;;;;;4.97;3.45;;;;;;;13.33;70.84;100399.09;5005713;28;20061;-52
2023/05/08 07:00:05;;;;;;;5.30;3.33;;;;;;;13.34;70.48;100408.63;5004679;28;20049;-53
2023/05/08 07:02:31;;;;;;;7.38;3.58;;;;;;;13.36;70.08;100403.41;4999839;28;20050;-55
2023/05/08 07:04:58;;;;;;;5.25;3.05;;;;;;;13.42;70.27;100402.47;5002234;28;20506;-52
2023/05/08 07:07:25;;;;;;;4.93;2.88;;;;;;;13.40;70.05;100399.06;4994285;28;20058;-48
2023/05/08 07:09:52;;;;;;;4.47;2.40;;;;;;;13.40;69.75;100399.06;4999833;28;20078;-51
2023/05/08 07:12:19;;;;;;;5.55;4.25;;;;;;;13.43;70.63;100404.19;5003615;28;20095;-50
2023/05/08 07:14:45;;;;;;;2.33;1.42;;;;;;;13.45;70.20;100399.88;5002102;28;20505;-50
2023/05/08 07:17:12;;;;;;;5.40;3.53;;;;;;;13.46;70.12;100401.56;4998274;28;20556;-51
2023/05/08 07:19:38;;;;;;;6.43;3.20;;;;;;;13.51;69.85;100407.63;4994260;28;20079;-50
2023/05/08 07:22:05;;;;;;;7.65;4.03;;;;;;;13.56;69.62;100400.66;4998979;28;20157;-52
2023/05/08 07:24:32;;;;;;;5.95;3.92;;;;;;;13.59;69.73;100405.84;5004404;28;20042;-53
2023/05/08 07:26:59;;;;;;;5.43;4.00;;;;;;;13.66;70.48;100403.16;5003283;28;20049;-51
2023/05/08 07:29:26;;;;;;;5.07;3.03;;;;;;;13.68;70.21;100404.88;4999764;28;20506;-53
2023/05/08 07:31:53;;;;;;;5.90;4.00;;;;;;;13.70;70.00;100392.72;5004971;28;20556;-52
2023/05/08 07:34:20;;;;;;;7.10;4.25;;;;;;;13.73;69.69;100402.22;5002334;28;20041;-51
2023/05/08 07:36:46;;;;;;;6.40;3.42;;;;;;;13.75;70.05;100400.47;5006876;28;20074;-49
2023/05/08 07:39:13;;;;;;;3.40;2.90;;;;;;;13.75;69.15;100400.47;5002164;28;20119;-53
2023/05/08 07:41:40;;;;;;;4.90;1.42;;;;;;;13.77;70.15;100398.72;5004116;28;20476;-52
2023/05/08 07:44:07;;;;;;;6.22;2.78;;;;;;;13.75;69.14;100400.47;5003867;28;20058;-52
2023/05/08 07:46:34;;;;;;;3.83;2.63;;;;;;;13.78;70.05;100402.19;4998007;28;20046;-54
2023/05/08 07:49:01;;;;;;;4.47;2.95;;;;;;;13.78;69.66;100400.44;5000329;28;20064;-49
2023/05/08 07:51:27;;;;;;;5.68;2.75;;;;;;;13.81;69.74;100403.00;4994726;28;20046;-46
2023/05/08 07:53:54;;;;;;;4.80;2.83;;;;;;;13.80;69.64;100401.28;4997979;28;20058;-53
2023/05/08 07:56:22;;;;;;;7.78;3.17;;;;;;;13.83;69.46;100403.88;4994921;28;20050;-55
2023/05/08 07:58:48;;;;;;;6.15;2.58;;;;;;;13.88;70.11;100407.28;4996882;28;20081;-54
2023/05/08 08:01:16;;;;;;;4.95;2.58;;;;;;;13.88;69.87;100402.06;5002230;28;20070;-53
2023/05/08 08:03:44;;;;;;;4.68;2.58;;;;;;;13.85;69.44;100402.09;4997029;28;20116;-51
2023/05/08 08:06:11;;;;;;;5.65;2.78;;;;;;;13.87;69.21;100407.28;4994910;28;20104;-51
2023/05/08 08:08:38;;;;;;;5.50;3.10;;;;;;;13.88;69.12;100407.28;4995950;28;20042;-54
2023/05/08 08:11:05;;;;;;;3.17;2.50;;;;;;;13.92;69.32;100408.13;5004570;28;20108;-54
2023/05/08 08:13:32;;;;;;;6.30;2.90;;;;;;;13.96;69.62;100408.94;4988425;28;20550;-52
2023/05/08 08:16:00;;;;;;;5.97;3.13;;;;;;;13.99;69.99;100408.91;4991284;28;20046;-54
2023/05/08 08:18:27;;;;;;;4.57;3.22;;;;;;;14.00;69.55;100410.63;4990430;28;20050;-56
2023/05/08 08:20:54;;;;;;;4.15;3.30;;;;;;;14.04;69.69;100407.09;4996862;28;20130;-55
2023/05/08 08:23:20;;;;;;;6.00;4.43;;;;;;;14.04;68.95;100407.09;5000562;28;20785;-52
2023/05/08 08:25:47;;;;;;;3.45;1.20;;;;;;;14.05;69.13;100414.03;5001349;28;20469;-56
2023/05/08 08:28:13;;;;;;;3.90;3.50;;;;;;;14.07;69.30;100412.28;4998356;28;20752;-58
2023/05/08 08:30:40;;;;;;;3.88;2.35;;;;;;;14.11;69.81;100408.75;5003804;28;20108;-54
2023/05/08 08:33:07;;;;;;;4.53;2.83;;;;;;;14.17;69.58;100412.16;4997913;28;20104;-52
2023/05/08 08:35:33;;;;;;;5.85;3.60;;;;;;;14.24;69.44;100408.59;5004915;28;20070;-53
2023/05/08 08:38:00;;;;;;;3.17;2.50;;;;;;;14.27;69.01;100413.78;4995729;28;20467;-54
2023/05/08 08:40:27;;;;;;;3.70;2.08;;;;;;;14.32;69.11;100414.56;5002948;28;20509;-55
2023/05/08 08:42:54;;;;;;;4.53;3.05;;;;;;;14.32;68.82;100411.97;5000049;28;20053;-53
2023/05/08 08:45:21;;;;;;;5.07;2.75;;;;;;;14.38;68.79;100411.91;5000036;28;20130;-54
2023/05/08 08:47:51;;;;;;;9.23;3.72;;;;;;;14.43;68.75;100408.38;5003856;28;20065;-55
2023/05/08 08:50:19;;;;;;;4.20;2.78;;;;;;;14.48;68.52;100406.56;5002334;28;20138;-48
2023/05/08 08:52:56;;;;;;;4.85;4.03;;;;;;;14.57;68.96;100401.25;5001003;28;20088;-51
2023/05/08 08:55:25;;;;;;;7.43;4.65;;;;;;;14.69;68.91;100399.34;5003158;28;20072;-56
2023/05/08 09:00:48;;;;;;;7.13;1.90;;;;;;;14.87;68.58;100388.69;5147839;27;20123;-52
2023/05/08 09:03:16;;;;;;;3.33;1.75;;;;;;;14.89;68.76;100392.13;5120666;28;20050;-55
2023/05/08 09:05:44;;;;;;;5.05;2.45;;;;;;;14.92;68.81;100396.44;5117688;28;20047;-54
2023/05/08 09:08:12;;;;;;;5.03;2.05;;;;;;;14.96;68.16;100397.25;5114259;28;20039;-52
2023/05/08 09:10:39;;;;;;;4.47;2.35;;;;;;;15.02;68.40;100394.53;5116018;28;20053;-52
2023/05/08 09:13:06;;;;;;;5.25;1.90;;;;;;;15.10;68.81;100384.84;5120323;27;20126;-53
2023/05/08 09:15:33;;;;;;;4.85;1.58;;;;;;;15.18;68.31;100381.25;5119099;28;20069;-51
2023/05/08 09:18:01;;;;;;;2.85;1.45;;;;;;;15.22;68.42;100388.13;5116597;27;20074;-52
2023/05/08 09:20:29;;;;;;;5.00;2.15;;;;;;;15.26;67.84;100380.22;5114827;27;20047;-52
2023/05/08 09:22:59;;;;;;;3.33;2.20;;;;;;;15.32;67.90;100388.84;5096035;28;20500;-54
2023/05/08 09:25:40;;;;;;;4.85;2.13;;;;;;;15.24;68.13;100382.03;5116972;28;20094;-49
2023/05/08 09:33:29;;;;;;;5.50;1.83;;;;;;;15.25;68.15;100388.97;5036726;28;20399;-54
2023/05/08 09:35:56;;;;;;;4.15;1.67;;;;;;;15.24;68.32;100383.75;5002150;28;20100;-52
2023/05/08 09:38:38;;;;;;;5.63;1.63;;;;;;;15.18;68.15;100373.41;5001249;28;20666;-54
2023/05/08 09:41:11;;;;;;;4.18;2.20;;;;;;;15.16;68.97;100384.75;4999189;28;20057;-51
2023/05/08 09:43:38;;;;;;;;;;;;;;;15.00;68.89;100378.06;5012448;28;20727;-55
2023/05/08 09:46:25;;;;;;;3.20;1.30;;;;;;;15.02;68.44;100382.38;4995992;28;20008;-55
2023/05/08 09:48:56;;;;;;;3.92;1.63;;;;;;;15.01;68.56;100382.38;4997501;28;20050;-54
2023/05/08 09:51:26;;;;;;;2.65;1.38;;;;;;;14.98;68.31;100374.59;4990586;28;20046;-51
2023/05/08 09:53:54;;;;;;;4.95;1.88;;;;;;;14.95;68.68;100370.31;4995904;28;20061;-57
2023/05/08 09:56:29;;;;;;;2.42;1.25;;;;;;;14.85;69.44;100372.19;5005646;28;20050;-50
2023/05/08 09:58:56;;;;;;;4.55;1.63;;;;;;;14.89;69.44;100370.38;4996257;28;20046;-53
2023/05/08 10:04:05;;;;;;;3.88;1.60;;;;;;;14.81;69.62;100362.69;5072556;27;20399;-53
2023/05/08 10:06:32;;;;;;;4.07;1.77;;;;;;;14.77;69.27;100355.81;5047447;28;20092;-54
2023/05/08 10:09:15;;;;;;;4.07;1.67;;;;;;;14.75;69.40;100357.53;5037351;28;20481;-53
2023/05/08 10:11:54;;;;;;;3.78;1.52;;;;;;;14.73;70.09;100354.94;5046721;28;20504;-52
2023/05/08 10:14:23;;;;;;;3.17;1.30;;;;;;;14.69;70.15;100349.81;5038130;28;20049;-54
2023/05/08 10:16:51;;;;;;;4.25;2.40;;;;;;;14.68;70.29;100345.47;5057938;28;20788;-52
2023/05/08 10:19:22;;;;;;;2.55;1.40;;;;;;;14.64;70.74;100345.53;5054537;28;20053;-51
2023/05/08 10:21:51;;;;;;;3.20;2.58;;;;;;;14.65;70.23;100341.16;5041500;28;20470;-56
2023/05/08 10:24:20;;;;;;;1.83;1.30;;;;;;;14.64;70.59;100355.97;5059328;28;20048;-55
2023/05/08 10:29:54;;;;;;;3.45;2.38;;;;;;;14.59;70.76;100336.91;5102550;27;20340;-53
2023/05/08 10:32:23;;;;;;;3.88;2.90;;;;;;;14.63;71.05;100328.16;5059179;28;20053;-54
2023/05/08 10:34:55;;;;;;;4.00;1.95;;;;;;;14.70;70.96;100322.84;5046802;28;20419;-50
2023/05/08 10:37:23;;;;;;;2.85;2.40;;;;;;;14.78;71.14;100321.03;5046590;28;20524;-51
2023/05/08 10:39:53;;;;;;;4.25;3.45;;;;;;;14.91;70.77;100332.13;5050138;28;20076;-55
2023/05/08 10:42:20;;;;;;;7.13;3.72;;;;;;;15.05;71.18;100329.28;5051198;28;20048;-57
2023/05/08 10:44:48;;;;;;;5.60;2.55;;;;;;;15.20;70.43;100322.09;5056591;28;20614;-50
2023/05/08 10:47:28;;;;;;;5.78;3.90;;;;;;;15.30;71.30;100328.84;5053782;28;21187;-53
2023/05/08 10:55:35;;;;;;;3.75;1.60;;;;;;;15.51;70.15;100334.56;5049398;28;20420;-53
2023/05/08 11:03:30;;;;;;;5.10;1.90;;;;;;;15.50;70.13;100340.69;5062884;27;20429;-50
2023/05/08 11:06:00;;;;;;;3.40;1.58;;;;;;;15.52;69.94;100341.50;5055339;28;20072;-52
2023/05/08 11:08:30;;;;;;;4.65;2.75;;;;;;;15.54;70.15;100340.59;5061558;28;20043;-54
2023/05/08 11:13:37;;;;;;;6.72;2.28;;;;;;;15.71;70.11;100318.53;5065822;27;20397;-49
2023/05/08 11:16:11;;;;;;;3.63;1.73;;;;;;;15.74;69.87;100328.06;5037600;28;20421;-54
2023/05/08 11:19:18;;;;;;;3.50;1.45;;;;;;;15.77;69.90;100328.84;5040828;28;20057;-51
2023/05/08 11:35:53;;;;;;;3.85;1.63;;;;;;;16.06;69.95;100316.97;5059492;27;20409;-52
2023/05/08 11:43:57;;;;;;;4.70;1.38;;;;;;;16.25;69.55;100328.78;5084486;27;20414;-54
2023/05/08 11:46:31;;;;;;;;;;;;;;;16.12;70.68;100318.59;5049315;28;20059;-53
2023/05/08 11:49:00;;;;;;;3.97;1.10;;;;;;;16.17;70.10;100327.19;5054553;28;19931;-57
2023/05/08 11:51:31;;;;;;;2.72;1.10;;;;;;;16.25;69.32;100318.31;5054367;28;20056;-55
2023/05/08 11:53:59;;;;;;;2.08;1.17;;;;;;;16.22;70.36;100307.94;5060314;28;20048;-49
2023/05/08 11:56:26;;;;;;;1.98;1.02;;;;;;;16.34;69.49;100306.81;5044692;28;20738;-55
2023/05/08 11:59:12;;;;;;;3.20;1.13;;;;;;;16.38;68.90;100314.53;5042462;28;20064;-53
2023/05/08 12:01:39;;;;;;;2.90;1.38;;;;;;;16.45;69.29;100296.97;5054853;28;20055;-54
2023/05/08 12:04:11;;;;;;;1.80;0.77;;;;;;;16.47;68.77;100289.94;5056523;28;20060;-51
2023/05/08 12:06:40;;;;;;;2.40;1.25;;;;;;;16.51;68.98;100306.44;5057398;28;20827;-51
2023/05/08 12:09:14;;;;;;;2.53;1.42;;;;;;;16.49;68.65;100284.69;5057850;28;20716;-54
2023/05/08 12:11:44;;;;;;;2.20;1.15;;;;;;;16.48;69.30;100282.97;5057329;28;20037;-56
2023/05/08 12:14:13;;;;;;;2.63;1.52;;;;;;;16.52;68.89;100290.69;5051005;28;20045;-54
2023/05/08 12:16:41;;;;;;;3.85;1.38;;;;;;;16.57;68.91;100282.72;5049105;28;20056;-50
2023/05/08 12:19:11;;;;;;;2.13;1.20;;;;;;;16.62;69.39;100286.09;5053399;28;20053;-59
2023/05/08 12:21:46;;;;;;;3.30;1.60;;;;;;;16.68;69.46;100291.19;5049421;28;20550;-54
2023/05/08 12:24:21;;;;;;;3.30;2.15;;;;;;;16.66;69.26;100289.50;5053472;28;20057;-55
2023/05/08 12:26:54;;;;;;;2.65;0.95;;;;;;;16.64;68.80;100284.31;5049656;28;20424;-57
2023/05/08 12:29:22;;;;;;;2.03;1.10;;;;;;;16.53;68.85;100288.94;5050046;28;20048;-57
2023/05/08 12:31:51;;;;;;;3.20;1.23;;;;;;;16.52;68.65;100295.91;5049484;28;20044;-55
2023/05/08 12:34:19;;;;;;;2.17;0.88;;;;;;;16.45;69.36;100305.66;5047830;28;20060;-56
2023/05/08 12:36:45;;;;;;;2.30;1.00;;;;;;;16.38;69.17;100298.84;5054097;28;20076;-54
2023/05/08 12:39:14;;;;;;;4.05;1.55;;;;;;;16.38;68.99;100288.38;5048861;28;20774;-52
2023/05/08 12:41:49;;;;;;;4.32;1.10;;;;;;;16.33;69.46;100295.50;5047632;28;20049;-47
2023/05/08 12:44:22;;;;;;;3.47;1.35;;;;;;;16.30;69.17;100295.56;5046637;28;20080;-52